Pagina principale
METAR-TAF:

METAR-TAF

Aeroporti :

Aeroporto di Tunisi-Cartagine

Tunisi, Tunisia

latitudine: 36-50N, longitudine: 010-14E, altezza: 3 m

Osservazione

Il bollettino è stato emesso 15 minuti fa, alle 10:30 UTC
Vento 4 kt da ovest, variando fra sud/sud-ovest e nord/nord-ovest
Temperature 21°C
Umidità 56%
Pressione 1025 hPa
Visibilità 10 km o più
Nubi sparse ad un'altezza di 2600 ft

METAR: DTTA 311030Z 27004KT 210V330 9999 SCT026 21/12 Q1025

Ora: 11:45 (10:45 UTC)

Previsione

Il bollettino è stato emesso 5 ore e 45 minuti fa, alle 05:00 UTC
Previsione valida dal 31 alle 06 UTC al 01 alle 06 UTC
Vento 10 kt da nord-ovest
Visibilità 10 km o più
Poco nuvoloso ad un'altezza di 2600 ft
Nubi sparse ad un'altezza di 3300 ft
Evoluzione graduale
dal 31 alle 10 UTC al 31 alle 12 UTC
Vento 3 kt da direzioni variabili

TAF: DTTA 310500Z 3106/0106 31010KT 9999 FEW026 SCT033 BECMG 3110/3112 VRB03KT

Osservazioni e previsioni meteorologiche di più di 4000 aeroporti (messaggi METAR e TAF).

Le stazioni disponibili sono rappresentate dai dischi gialli e rossi sulla carta.

Puntare il mouse per vedere il nome della stazione.

Clicca sopra per visualizzare le osservazioni e previsioni meteorologiche.

Per cambiare la mappa : fare clic sui pulsanti verdi con una croce nera per ingrandire, il pulsante verde con un trattino per diminuire, o sulla freccia verde per le mappe adiacenti.


METAR-TAF: